sensor_id;sensor_type;location;lat;lon;timestamp;pressure;altitude;pressure_sealevel;temperature;humidity
42289;BME280;30230;47.520;19.016;2023-04-19T00:00:50;99055.34;;;12.70;50.81
42289;BME280;30230;47.520;19.016;2023-04-19T00:02:51;99055.50;;;12.75;49.63
42289;BME280;30230;47.520;19.016;2023-04-19T00:04:53;99056.41;;;12.69;48.41
42289;BME280;30230;47.520;19.016;2023-04-19T00:06:54;99049.28;;;12.75;49.32
42289;BME280;30230;47.520;19.016;2023-04-19T00:08:55;99036.69;;;12.81;48.83
42289;BME280;30230;47.520;19.016;2023-04-19T00:10:56;99045.63;;;12.88;47.82
42289;BME280;30230;47.520;19.016;2023-04-19T00:12:57;99043.94;;;12.87;47.72
42289;BME280;30230;47.520;19.016;2023-04-19T00:14:58;99044.25;;;12.78;47.69
42289;BME280;30230;47.520;19.016;2023-04-19T00:16:58;99027.50;;;12.82;46.93
42289;BME280;30230;47.520;19.016;2023-04-19T00:18:59;99033.16;;;12.80;47.79
42289;BME280;30230;47.520;19.016;2023-04-19T00:20:59;99034.38;;;12.84;47.61
42289;BME280;30230;47.520;19.016;2023-04-19T00:23:01;99031.91;;;12.83;47.62
42289;BME280;30230;47.520;19.016;2023-04-19T00:25:03;99034.22;;;12.79;47.51
42289;BME280;30230;47.520;19.016;2023-04-19T00:27:03;99030.38;;;12.68;48.62
42289;BME280;30230;47.520;19.016;2023-04-19T00:29:03;99039.66;;;12.54;49.37
42289;BME280;30230;47.520;19.016;2023-04-19T00:31:04;99029.66;;;12.55;49.35
42289;BME280;30230;47.520;19.016;2023-04-19T00:33:04;99029.13;;;12.46;48.85
42289;BME280;30230;47.520;19.016;2023-04-19T00:35:11;99025.84;;;12.37;48.72
42289;BME280;30230;47.520;19.016;2023-04-19T00:37:12;99021.03;;;12.39;47.78
42289;BME280;30230;47.520;19.016;2023-04-19T00:39:12;99022.03;;;12.45;48.05
42289;BME280;30230;47.520;19.016;2023-04-19T00:41:13;99024.38;;;12.41;49.21
42289;BME280;30230;47.520;19.016;2023-04-19T00:43:19;99021.84;;;12.40;49.78
42289;BME280;30230;47.520;19.016;2023-04-19T00:45:20;99023.38;;;12.36;50.22
42289;BME280;30230;47.520;19.016;2023-04-19T00:47:20;99017.78;;;12.31;50.73
42289;BME280;30230;47.520;19.016;2023-04-19T00:49:22;99016.25;;;12.41;49.02
42289;BME280;30230;47.520;19.016;2023-04-19T00:51:23;99018.28;;;12.46;49.69
42289;BME280;30230;47.520;19.016;2023-04-19T00:53:23;99005.28;;;12.30;49.94
42289;BME280;30230;47.520;19.016;2023-04-19T00:55:24;99014.19;;;12.37;50.60
42289;BME280;30230;47.520;19.016;2023-04-19T00:57:24;99012.81;;;12.28;50.07
42289;BME280;30230;47.520;19.016;2023-04-19T00:59:25;99014.47;;;12.29;51.14
42289;BME280;30230;47.520;19.016;2023-04-19T01:01:26;99010.53;;;12.24;50.87
42289;BME280;30230;47.520;19.016;2023-04-19T01:03:26;99008.53;;;12.13;50.78
42289;BME280;30230;47.520;19.016;2023-04-19T01:05:29;99011.53;;;12.05;52.53
42289;BME280;30230;47.520;19.016;2023-04-19T01:07:29;98996.81;;;11.94;51.97
42289;BME280;30230;47.520;19.016;2023-04-19T01:09:32;99006.78;;;11.94;52.20
42289;BME280;30230;47.520;19.016;2023-04-19T01:11:32;99002.25;;;11.88;53.65
42289;BME280;30230;47.520;19.016;2023-04-19T01:13:33;99000.22;;;11.83;53.25
42289;BME280;30230;47.520;19.016;2023-04-19T01:15:34;98977.16;;;11.74;52.55
42289;BME280;30230;47.520;19.016;2023-04-19T01:17:35;98993.97;;;11.83;51.86
42289;BME280;30230;47.520;19.016;2023-04-19T01:19:36;98991.69;;;11.80;51.77
42289;BME280;30230;47.520;19.016;2023-04-19T01:21:37;98979.69;;;11.69;52.64
42289;BME280;30230;47.520;19.016;2023-04-19T01:23:39;98994.81;;;11.77;54.21
42289;BME280;30230;47.520;19.016;2023-04-19T01:25:39;98984.88;;;11.70;54.33
42289;BME280;30230;47.520;19.016;2023-04-19T01:27:40;98982.75;;;11.72;53.06
42289;BME280;30230;47.520;19.016;2023-04-19T01:29:40;98992.38;;;11.68;53.87
42289;BME280;30230;47.520;19.016;2023-04-19T01:31:40;98981.94;;;11.72;53.83
42289;BME280;30230;47.520;19.016;2023-04-19T01:33:41;98983.81;;;11.71;54.25
42289;BME280;30230;47.520;19.016;2023-04-19T01:35:41;98978.63;;;11.70;54.28
42289;BME280;30230;47.520;19.016;2023-04-19T01:37:42;98969.09;;;11.61;55.12
42289;BME280;30230;47.520;19.016;2023-04-19T01:39:42;98967.44;;;11.60;54.02
42289;BME280;30230;47.520;19.016;2023-04-19T01:41:42;98969.50;;;11.64;53.08
42289;BME280;30230;47.520;19.016;2023-04-19T01:43:43;98971.56;;;11.69;51.62
42289;BME280;30230;47.520;19.016;2023-04-19T01:45:43;98967.97;;;11.75;51.16
42289;BME280;30230;47.520;19.016;2023-04-19T01:47:44;98965.69;;;11.72;51.11
42289;BME280;30230;47.520;19.016;2023-04-19T01:49:45;98966.50;;;11.79;51.72
42289;BME280;30230;47.520;19.016;2023-04-19T01:51:45;98964.00;;;11.84;50.70
42289;BME280;30230;47.520;19.016;2023-04-19T01:53:46;98965.88;;;11.84;49.87
42289;BME280;30230;47.520;19.016;2023-04-19T01:55:51;98962.97;;;11.79;52.30
42289;BME280;30230;47.520;19.016;2023-04-19T01:57:52;98965.50;;;11.73;52.95
42289;BME280;30230;47.520;19.016;2023-04-19T01:59:53;98953.66;;;11.68;51.44
42289;BME280;30230;47.520;19.016;2023-04-19T02:01:54;98954.94;;;11.65;51.88
42289;BME280;30230;47.520;19.016;2023-04-19T02:03:54;98958.63;;;11.71;51.67
42289;BME280;30230;47.520;19.016;2023-04-19T02:05:54;98960.34;;;11.65;51.39
42289;BME280;30230;47.520;19.016;2023-04-19T02:07:55;98955.34;;;11.62;51.69
42289;BME280;30230;47.520;19.016;2023-04-19T02:09:55;98954.50;;;11.68;51.71
42289;BME280;30230;47.520;19.016;2023-04-19T02:11:58;98949.47;;;11.72;52.23
42289;BME280;30230;47.520;19.016;2023-04-19T02:13:58;98944.88;;;11.72;51.93
42289;BME280;30230;47.520;19.016;2023-04-19T02:15:59;98946.75;;;11.72;51.66
42289;BME280;30230;47.520;19.016;2023-04-19T02:18:02;98949.44;;;11.79;50.91
42289;BME280;30230;47.520;19.016;2023-04-19T02:20:06;98941.91;;;11.81;49.61
42289;BME280;30230;47.520;19.016;2023-04-19T02:22:09;98951.31;;;11.85;49.89
42289;BME280;30230;47.520;19.016;2023-04-19T02:24:10;98938.81;;;11.84;50.10
42289;BME280;30230;47.520;19.016;2023-04-19T02:26:10;98944.22;;;11.84;50.10
42289;BME280;30230;47.520;19.016;2023-04-19T02:28:12;98939.66;;;11.84;51.50
42289;BME280;30230;47.520;19.016;2023-04-19T02:30:12;98932.16;;;11.80;52.36
42289;BME280;30230;47.520;19.016;2023-04-19T02:32:13;98942.34;;;11.78;52.21
42289;BME280;30230;47.520;19.016;2023-04-19T02:34:13;98930.09;;;11.75;52.62
42289;BME280;30230;47.520;19.016;2023-04-19T02:36:13;98930.16;;;11.68;54.87
42289;BME280;30230;47.520;19.016;2023-04-19T02:38:14;98930.59;;;11.65;53.46
42289;BME280;30230;47.520;19.016;2023-04-19T02:40:14;98913.41;;;11.53;54.44
42289;BME280;30230;47.520;19.016;2023-04-19T02:42:15;98929.19;;;11.56;55.01
42289;BME280;30230;47.520;19.016;2023-04-19T02:44:15;98925.88;;;11.54;54.47
42289;BME280;30230;47.520;19.016;2023-04-19T02:46:16;98924.41;;;11.52;53.73
42289;BME280;30230;47.520;19.016;2023-04-19T02:48:16;98903.25;;;11.42;54.26
42289;BME280;30230;47.520;19.016;2023-04-19T02:50:17;98919.47;;;11.42;56.72
42289;BME280;30230;47.520;19.016;2023-04-19T02:52:17;98914.13;;;11.35;56.20
42289;BME280;30230;47.520;19.016;2023-04-19T02:54:18;98917.69;;;11.29;55.62
42289;BME280;30230;47.520;19.016;2023-04-19T02:56:18;98915.22;;;11.28;56.24
42289;BME280;30230;47.520;19.016;2023-04-19T02:58:18;98914.59;;;11.26;56.88
42289;BME280;30230;47.520;19.016;2023-04-19T03:00:19;98909.19;;;11.26;57.01
42289;BME280;30230;47.520;19.016;2023-04-19T03:02:19;98912.75;;;11.19;57.52
42289;BME280;30230;47.520;19.016;2023-04-19T03:04:20;98902.41;;;11.16;57.06
42289;BME280;30230;47.520;19.016;2023-04-19T03:06:21;98906.16;;;11.09;57.04
42289;BME280;30230;47.520;19.016;2023-04-19T03:08:21;98885.47;;;10.89;57.40
42289;BME280;30230;47.520;19.016;2023-04-19T03:10:22;98904.09;;;11.04;58.29
42289;BME280;30230;47.520;19.016;2023-04-19T03:12:22;98904.56;;;11.01;58.84
42289;BME280;30230;47.520;19.016;2023-04-19T03:14:23;98900.41;;;10.99;59.12
42289;BME280;30230;47.520;19.016;2023-04-19T03:16:23;98894.13;;;11.05;58.60
42289;BME280;30230;47.520;19.016;2023-04-19T03:18:23;98894.28;;;11.16;58.26
42289;BME280;30230;47.520;19.016;2023-04-19T03:20:24;98882.66;;;11.09;58.65
42289;BME280;30230;47.520;19.016;2023-04-19T03:22:25;98884.59;;;11.02;58.68
42289;BME280;30230;47.520;19.016;2023-04-19T03:24:26;98892.50;;;10.97;59.60
42289;BME280;30230;47.520;19.016;2023-04-19T03:26:28;98894.81;;;10.93;60.62
42289;BME280;30230;47.520;19.016;2023-04-19T03:28:28;98890.88;;;10.96;59.35
42289;BME280;30230;47.520;19.016;2023-04-19T03:30:29;98887.59;;;10.81;60.81
42289;BME280;30230;47.520;19.016;2023-04-19T03:32:30;98883.44;;;10.78;61.26
42289;BME280;30230;47.520;19.016;2023-04-19T03:34:30;98876.78;;;10.81;60.17
42289;BME280;30230;47.520;19.016;2023-04-19T03:36:31;98888.88;;;10.72;62.22
42289;BME280;30230;47.520;19.016;2023-04-19T03:38:32;98897.84;;;10.65;63.76
42289;BME280;30230;47.520;19.016;2023-04-19T03:40:32;98889.50;;;10.67;62.50
42289;BME280;30230;47.520;19.016;2023-04-19T03:42:33;98881.81;;;10.64;62.22
42289;BME280;30230;47.520;19.016;2023-04-19T03:44:33;98881.84;;;10.57;62.73
42289;BME280;30230;47.520;19.016;2023-04-19T03:46:33;98883.13;;;10.48;64.39
42289;BME280;30230;47.520;19.016;2023-04-19T03:48:34;98885.47;;;10.31;65.59
42289;BME280;30230;47.520;19.016;2023-04-19T03:50:34;98890.66;;;10.26;65.47
42289;BME280;30230;47.520;19.016;2023-04-19T03:52:35;98893.97;;;10.22;66.71
42289;BME280;30230;47.520;19.016;2023-04-19T03:54:35;98891.03;;;10.23;66.63
42289;BME280;30230;47.520;19.016;2023-04-19T03:56:36;98882.72;;;10.51;61.59
42289;BME280;30230;47.520;19.016;2023-04-19T03:58:36;98891.25;;;10.41;61.62
42289;BME280;30230;47.520;19.016;2023-04-19T04:00:36;98889.19;;;10.37;63.15
42289;BME280;30230;47.520;19.016;2023-04-19T04:02:37;98890.25;;;10.29;64.95
42289;BME280;30230;47.520;19.016;2023-04-19T04:04:38;98889.63;;;10.27;63.64
42289;BME280;30230;47.520;19.016;2023-04-19T04:06:38;98884.41;;;10.32;63.86
42289;BME280;30230;47.520;19.016;2023-04-19T04:08:39;98882.75;;;10.31;63.83
42289;BME280;30230;47.520;19.016;2023-04-19T04:10:39;98877.56;;;10.36;63.92
42289;BME280;30230;47.520;19.016;2023-04-19T04:12:40;98879.44;;;10.36;63.48
42289;BME280;30230;47.520;19.016;2023-04-19T04:14:40;98880.69;;;10.40;63.61
42289;BME280;30230;47.520;19.016;2023-04-19T04:16:41;98878.16;;;10.45;63.09
42289;BME280;30230;47.520;19.016;2023-04-19T04:18:41;98880.44;;;10.48;63.02
42289;BME280;30230;47.520;19.016;2023-04-19T04:20:42;98879.38;;;10.56;61.66
42289;BME280;30230;47.520;19.016;2023-04-19T04:22:43;98873.13;;;10.62;60.73
42289;BME280;30230;47.520;19.016;2023-04-19T04:24:45;98882.69;;;10.58;62.04
42289;BME280;30230;47.520;19.016;2023-04-19T04:26:47;98883.72;;;10.57;61.63
42289;BME280;30230;47.520;19.016;2023-04-19T04:28:48;98884.59;;;10.51;62.48
42289;BME280;30230;47.520;19.016;2023-04-19T04:30:49;98872.78;;;10.45;63.46
42289;BME280;30230;47.520;19.016;2023-04-19T04:32:51;98880.69;;;10.40;63.91
42289;BME280;30230;47.520;19.016;2023-04-19T04:34:51;98871.75;;;10.33;64.13
42289;BME280;30230;47.520;19.016;2023-04-19T04:36:52;98870.66;;;10.54;62.06
42289;BME280;30230;47.520;19.016;2023-04-19T04:38:52;98872.28;;;10.61;61.45
42289;BME280;30230;47.520;19.016;2023-04-19T04:40:53;98870.19;;;10.63;61.70
42289;BME280;30230;47.520;19.016;2023-04-19T04:42:54;98876.66;;;10.62;62.38
42289;BME280;30230;47.520;19.016;2023-04-19T04:44:54;98872.22;;;10.75;61.83
42289;BME280;30230;47.520;19.016;2023-04-19T04:46:57;98870.56;;;10.74;62.02
42289;BME280;30230;47.520;19.016;2023-04-19T04:48:57;98872.72;;;10.65;61.54
42289;BME280;30230;47.520;19.016;2023-04-19T04:50:57;98874.31;;;10.73;61.25
42289;BME280;30230;47.520;19.016;2023-04-19T04:52:58;98876.41;;;10.71;61.23
42289;BME280;30230;47.520;19.016;2023-04-19T04:54:58;98870.34;;;10.82;60.92
42289;BME280;30230;47.520;19.016;2023-04-19T04:56:59;98873.22;;;10.87;60.16
42289;BME280;30230;47.520;19.016;2023-04-19T04:59:00;98858.44;;;10.89;59.74
42289;BME280;30230;47.520;19.016;2023-04-19T05:01:00;98861.38;;;10.88;60.13
42289;BME280;30230;47.520;19.016;2023-04-19T05:03:01;98860.13;;;10.84;61.07
42289;BME280;30230;47.520;19.016;2023-04-19T05:05:01;98854.31;;;10.87;62.13
42289;BME280;30230;47.520;19.016;2023-04-19T05:07:02;98862.16;;;10.95;60.27
42289;BME280;30230;47.520;19.016;2023-04-19T05:09:03;98860.91;;;10.98;60.46
42289;BME280;30230;47.520;19.016;2023-04-19T05:11:03;98862.56;;;10.99;61.12
42289;BME280;30230;47.520;19.016;2023-04-19T05:13:03;98865.22;;;11.05;59.95
42289;BME280;30230;47.520;19.016;2023-04-19T05:15:04;98863.50;;;11.17;60.12
42289;BME280;30230;47.520;19.016;2023-04-19T05:17:05;98855.22;;;11.12;58.72
42289;BME280;30230;47.520;19.016;2023-04-19T05:19:05;98860.53;;;11.26;58.77
42289;BME280;30230;47.520;19.016;2023-04-19T05:21:06;98859.81;;;11.37;57.93
42289;BME280;30230;47.520;19.016;2023-04-19T05:23:09;98849.84;;;11.37;58.82
42289;BME280;30230;47.520;19.016;2023-04-19T05:25:10;98862.88;;;11.47;56.26
42289;BME280;30230;47.520;19.016;2023-04-19T05:27:11;98863.28;;;11.51;56.91
42289;BME280;30230;47.520;19.016;2023-04-19T05:29:11;98860.91;;;11.61;56.95
42289;BME280;30230;47.520;19.016;2023-04-19T05:31:11;98866.09;;;11.62;56.88
42289;BME280;30230;47.520;19.016;2023-04-19T05:33:12;98861.47;;;11.69;56.37
42289;BME280;30230;47.520;19.016;2023-04-19T05:35:13;98858.75;;;11.69;56.81
42289;BME280;30230;47.520;19.016;2023-04-19T05:37:13;98862.22;;;11.77;56.80
42289;BME280;30230;47.520;19.016;2023-04-19T05:39:13;98866.94;;;11.88;56.86
42289;BME280;30230;47.520;19.016;2023-04-19T05:41:14;98860.63;;;11.94;56.52
42289;BME280;30230;47.520;19.016;2023-04-19T05:43:15;98860.09;;;12.29;61.72
42289;BME280;30230;47.520;19.016;2023-04-19T05:45:15;98855.31;;;12.31;57.49
42289;BME280;30230;47.520;19.016;2023-04-19T05:47:17;98853.63;;;12.48;55.25
42289;BME280;30230;47.520;19.016;2023-04-19T05:49:18;98856.19;;;12.43;56.57
42289;BME280;30230;47.520;19.016;2023-04-19T05:51:18;98856.50;;;12.53;56.09
42289;BME280;30230;47.520;19.016;2023-04-19T05:53:18;98856.88;;;12.57;55.49
42289;BME280;30230;47.520;19.016;2023-04-19T05:55:19;98857.03;;;12.62;54.96
42289;BME280;30230;47.520;19.016;2023-04-19T05:57:19;98854.47;;;12.67;54.81
42289;BME280;30230;47.520;19.016;2023-04-19T05:59:20;98861.84;;;12.78;55.21
42289;BME280;30230;47.520;19.016;2023-04-19T06:01:21;98859.94;;;12.78;55.17
42289;BME280;30230;47.520;19.016;2023-04-19T06:03:21;98851.97;;;12.84;54.76
42289;BME280;30230;47.520;19.016;2023-04-19T06:05:22;98846.69;;;12.89;54.62
42289;BME280;30230;47.520;19.016;2023-04-19T06:07:22;98847.88;;;12.93;52.85
42289;BME280;30230;47.520;19.016;2023-04-19T06:09:23;98846.28;;;13.03;53.24
42289;BME280;30230;47.520;19.016;2023-04-19T06:11:23;98848.88;;;13.10;52.85
42289;BME280;30230;47.520;19.016;2023-04-19T06:13:24;98857.41;;;13.14;53.27
42289;BME280;30230;47.520;19.016;2023-04-19T06:15:24;98855.50;;;13.14;52.65
42289;BME280;30230;47.520;19.016;2023-04-19T06:17:26;98849.78;;;13.22;53.61
42289;BME280;30230;47.520;19.016;2023-04-19T06:19:26;98854.50;;;13.27;52.49
42289;BME280;30230;47.520;19.016;2023-04-19T06:21:29;98847.84;;;13.41;51.51
42289;BME280;30230;47.520;19.016;2023-04-19T06:23:30;98859.28;;;13.43;52.45
42289;BME280;30230;47.520;19.016;2023-04-19T06:25:31;98853.28;;;13.53;52.42
42289;BME280;30230;47.520;19.016;2023-04-19T06:27:31;98844.81;;;13.61;51.71
42289;BME280;30230;47.520;19.016;2023-04-19T06:29:31;98847.66;;;13.66;50.44
42289;BME280;30230;47.520;19.016;2023-04-19T06:31:32;98845.06;;;13.71;50.87
42289;BME280;30230;47.520;19.016;2023-04-19T06:33:33;98836.22;;;13.76;51.32
42289;BME280;30230;47.520;19.016;2023-04-19T06:35:33;98847.78;;;13.95;55.46
42289;BME280;30230;47.520;19.016;2023-04-19T06:37:33;98850.03;;;13.98;52.91
42289;BME280;30230;47.520;19.016;2023-04-19T06:39:34;98843.88;;;14.14;50.72
42289;BME280;30230;47.520;19.016;2023-04-19T06:41:34;98835.75;;;14.02;49.36
42289;BME280;30230;47.520;19.016;2023-04-19T06:43:35;98841.88;;;14.10;48.51
42289;BME280;30230;47.520;19.016;2023-04-19T06:45:35;98830.31;;;14.02;48.72
42289;BME280;30230;47.520;19.016;2023-04-19T06:47:36;98835.03;;;14.07;48.43
42289;BME280;30230;47.520;19.016;2023-04-19T06:49:36;98836.13;;;14.06;48.94
42289;BME280;30230;47.520;19.016;2023-04-19T06:51:37;98837.28;;;14.10;47.69
42289;BME280;30230;47.520;19.016;2023-04-19T06:53:38;98827.25;;;14.22;47.18
42289;BME280;30230;47.520;19.016;2023-04-19T06:55:38;98831.97;;;14.27;47.98
42289;BME280;30230;47.520;19.016;2023-04-19T06:57:39;98832.41;;;14.36;48.21
42289;BME280;30230;47.520;19.016;2023-04-19T06:59:39;98829.22;;;14.50;47.26
42289;BME280;30230;47.520;19.016;2023-04-19T07:01:40;98827.19;;;14.69;47.00
42289;BME280;30230;47.520;19.016;2023-04-19T07:03:40;98820.56;;;14.94;43.66
42289;BME280;30230;47.520;19.016;2023-04-19T07:05:41;98820.09;;;14.97;43.20
42289;BME280;30230;47.520;19.016;2023-04-19T07:07:41;98822.44;;;15.05;43.69
42289;BME280;30230;47.520;19.016;2023-04-19T07:09:42;98820.75;;;15.04;43.61
42289;BME280;30230;47.520;19.016;2023-04-19T07:11:42;98819.72;;;15.05;44.35
42289;BME280;30230;47.520;19.016;2023-04-19T07:13:42;98822.22;;;15.23;45.23
42289;BME280;30230;47.520;19.016;2023-04-19T07:15:43;98822.66;;;15.49;42.95
42289;BME280;30230;47.520;19.016;2023-04-19T07:17:43;98821.19;;;15.58;42.13
42289;BME280;30230;47.520;19.016;2023-04-19T07:19:46;98820.56;;;15.68;42.00
42289;BME280;30230;47.520;19.016;2023-04-19T07:21:47;98813.63;;;15.94;40.88
42289;BME280;30230;47.520;19.016;2023-04-19T07:23:48;98819.06;;;15.94;40.33
42289;BME280;30230;47.520;19.016;2023-04-19T07:25:48;98809.72;;;16.06;39.58
42289;BME280;30230;47.520;19.016;2023-04-19T07:27:49;98811.25;;;16.19;38.83
42289;BME280;30230;47.520;19.016;2023-04-19T07:29:51;98809.19;;;16.26;38.67
42289;BME280;30230;47.520;19.016;2023-04-19T07:31:52;98802.06;;;16.25;37.20
42289;BME280;30230;47.520;19.016;2023-04-19T07:33:54;98813.13;;;16.35;38.75
42289;BME280;30230;47.520;19.016;2023-04-19T07:35:55;98811.47;;;16.56;38.45
42289;BME280;30230;47.520;19.016;2023-04-19T07:37:55;98809.44;;;16.68;38.04
42289;BME280;30230;47.520;19.016;2023-04-19T07:39:56;98801.25;;;16.68;37.83
42289;BME280;30230;47.520;19.016;2023-04-19T07:41:56;98805.53;;;16.81;37.18
42289;BME280;30230;47.520;19.016;2023-04-19T07:43:57;98811.03;;;16.42;37.31
42289;BME280;30230;47.520;19.016;2023-04-19T07:45:57;98813.09;;;15.97;39.91
42289;BME280;30230;47.520;19.016;2023-04-19T07:47:58;98812.56;;;16.33;37.02
42289;BME280;30230;47.520;19.016;2023-04-19T07:49:58;98798.63;;;16.74;36.50
42289;BME280;30230;47.520;19.016;2023-04-19T07:51:59;98802.59;;;17.15;38.08
42289;BME280;30230;47.520;19.016;2023-04-19T07:54:01;98809.91;;;17.36;35.45
42289;BME280;30230;47.520;19.016;2023-04-19T07:56:01;98809.50;;;17.50;37.20
42289;BME280;30230;47.520;19.016;2023-04-19T07:58:01;98801.34;;;17.55;36.90
42289;BME280;30230;47.520;19.016;2023-04-19T08:00:02;98808.50;;;17.61;37.11
42289;BME280;30230;47.520;19.016;2023-04-19T08:02:04;98801.81;;;17.74;35.67
42289;BME280;30230;47.520;19.016;2023-04-19T08:04:04;98806.22;;;17.80;35.78
42289;BME280;30230;47.520;19.016;2023-04-19T08:06:05;98803.81;;;17.56;37.68
42289;BME280;30230;47.520;19.016;2023-04-19T08:08:08;98810.19;;;17.67;37.37
42289;BME280;30230;47.520;19.016;2023-04-19T08:10:09;98802.81;;;17.35;38.34
42289;BME280;30230;47.520;19.016;2023-04-19T08:12:09;98802.03;;;17.40;38.03
42289;BME280;30230;47.520;19.016;2023-04-19T08:14:09;98804.22;;;17.70;37.27
42289;BME280;30230;47.520;19.016;2023-04-19T08:16:10;98800.16;;;17.73;39.10
42289;BME280;30230;47.520;19.016;2023-04-19T08:18:10;98806.16;;;18.12;38.23
42289;BME280;30230;47.520;19.016;2023-04-19T08:20:11;98797.72;;;18.18;36.08
42289;BME280;30230;47.520;19.016;2023-04-19T08:22:11;98809.25;;;18.26;35.82
42289;BME280;30230;47.520;19.016;2023-04-19T08:24:12;98799.50;;;18.45;33.83
42289;BME280;30230;47.520;19.016;2023-04-19T08:26:12;98805.88;;;18.56;35.36
42289;BME280;30230;47.520;19.016;2023-04-19T08:28:13;98803.75;;;18.68;34.19
42289;BME280;30230;47.520;19.016;2023-04-19T08:30:13;98799.41;;;18.77;34.11
42289;BME280;30230;47.520;19.016;2023-04-19T08:32:14;98799.47;;;18.92;35.21
42289;BME280;30230;47.520;19.016;2023-04-19T08:34:14;98796.94;;;18.81;33.29
42289;BME280;30230;47.520;19.016;2023-04-19T08:36:15;98797.09;;;18.59;34.58
42289;BME280;30230;47.520;19.016;2023-04-19T08:38:15;98798.38;;;18.36;34.07
42289;BME280;30230;47.520;19.016;2023-04-19T08:40:16;98799.06;;;18.11;32.23
42289;BME280;30230;47.520;19.016;2023-04-19T08:42:17;98798.66;;;17.92;34.27
42289;BME280;30230;47.520;19.016;2023-04-19T08:44:18;98789.13;;;17.94;35.03
42289;BME280;30230;47.520;19.016;2023-04-19T08:46:21;98795.66;;;17.88;35.42
42289;BME280;30230;47.520;19.016;2023-04-19T08:48:23;98789.16;;;17.67;37.39
42289;BME280;30230;47.520;19.016;2023-04-19T08:50:24;98789.06;;;17.57;36.90
42289;BME280;30230;47.520;19.016;2023-04-19T08:52:26;98787.06;;;17.42;36.01
42289;BME280;30230;47.520;19.016;2023-04-19T08:54:28;98788.44;;;17.45;37.45
42289;BME280;30230;47.520;19.016;2023-04-19T08:56:29;98785.44;;;17.47;37.93
42289;BME280;30230;47.520;19.016;2023-04-19T08:58:30;98786.38;;;17.30;38.40
42289;BME280;30230;47.520;19.016;2023-04-19T09:00:32;98785.50;;;17.25;38.75
42289;BME280;30230;47.520;19.016;2023-04-19T09:02:59;98784.28;;;17.10;39.77
42289;BME280;30230;47.520;19.016;2023-04-19T09:05:00;98782.13;;;17.12;39.87
42289;BME280;30230;47.520;19.016;2023-04-19T09:07:00;98785.25;;;16.99;38.59
42289;BME280;30230;47.520;19.016;2023-04-19T09:11:17;98787.69;;;16.96;41.07
42289;BME280;30230;47.520;19.016;2023-04-19T09:13:19;98781.59;;;17.42;39.93
42289;BME280;30230;47.520;19.016;2023-04-19T09:15:34;98781.16;;;17.93;37.75
42289;BME280;30230;47.520;19.016;2023-04-19T09:17:36;98774.44;;;18.06;38.26
42289;BME280;30230;47.520;19.016;2023-04-19T09:19:45;98772.44;;;18.48;39.43
42289;BME280;30230;47.520;19.016;2023-04-19T09:21:46;98773.66;;;18.73;37.65
42289;BME280;30230;47.520;19.016;2023-04-19T09:23:50;98764.41;;;18.94;37.38
42289;BME280;30230;47.520;19.016;2023-04-19T09:27:54;98762.84;;;19.29;34.71
42289;BME280;30230;47.520;19.016;2023-04-19T09:30:07;98761.72;;;19.20;37.13
42289;BME280;30230;47.520;19.016;2023-04-19T09:32:08;98766.41;;;19.35;37.15
42289;BME280;30230;47.520;19.016;2023-04-19T09:34:13;98762.53;;;19.20;37.35
42289;BME280;30230;47.520;19.016;2023-04-19T09:36:32;98756.25;;;19.15;37.74
42289;BME280;30230;47.520;19.016;2023-04-19T09:38:48;98757.13;;;19.61;37.79
42289;BME280;30230;47.520;19.016;2023-04-19T09:40:49;98757.94;;;19.72;36.88
42289;BME280;30230;47.520;19.016;2023-04-19T09:42:50;98756.81;;;19.88;35.74
42289;BME280;30230;47.520;19.016;2023-04-19T09:44:57;98753.72;;;20.10;35.54
42289;BME280;30230;47.520;19.016;2023-04-19T09:46:58;98748.59;;;19.83;35.78
42289;BME280;30230;47.520;19.016;2023-04-19T09:51:22;98750.97;;;20.15;35.58
42289;BME280;30230;47.520;19.016;2023-04-19T09:53:25;98750.81;;;19.71;34.70
42289;BME280;30230;47.520;19.016;2023-04-19T09:55:26;98754.03;;;19.17;36.29
42289;BME280;30230;47.520;19.016;2023-04-19T09:57:26;98750.22;;;19.13;34.86
42289;BME280;30230;47.520;19.016;2023-04-19T09:59:26;98749.41;;;19.53;36.98
42289;BME280;30230;47.520;19.016;2023-04-19T10:01:27;98748.31;;;19.08;36.96
42289;BME280;30230;47.520;19.016;2023-04-19T10:03:29;98743.50;;;18.63;38.44
42289;BME280;30230;47.520;19.016;2023-04-19T10:05:30;98750.53;;;18.38;39.40
42289;BME280;30230;47.520;19.016;2023-04-19T10:07:32;98755.34;;;18.16;38.88
42289;BME280;30230;47.520;19.016;2023-04-19T10:09:34;98751.34;;;17.86;39.42
42289;BME280;30230;47.520;19.016;2023-04-19T10:11:36;98761.00;;;17.67;41.32
42289;BME280;30230;47.520;19.016;2023-04-19T10:13:40;98749.69;;;17.48;44.74
42289;BME280;30230;47.520;19.016;2023-04-19T10:15:41;98746.03;;;17.32;44.05
42289;BME280;30230;47.520;19.016;2023-04-19T10:17:43;98753.38;;;17.32;45.08
42289;BME280;30230;47.520;19.016;2023-04-19T10:19:44;98749.97;;;17.19;43.33
42289;BME280;30230;47.520;19.016;2023-04-19T10:21:47;98750.28;;;16.91;43.91
42289;BME280;30230;47.520;19.016;2023-04-19T10:23:48;98742.44;;;16.73;45.12
42289;BME280;30230;47.520;19.016;2023-04-19T10:25:54;98746.72;;;16.68;45.37
42289;BME280;30230;47.520;19.016;2023-04-19T10:27:56;98748.00;;;16.61;45.55
42289;BME280;30230;47.520;19.016;2023-04-19T10:30:01;98745.16;;;16.51;47.29
42289;BME280;30230;47.520;19.016;2023-04-19T10:32:12;98748.16;;;16.49;48.38
42289;BME280;30230;47.520;19.016;2023-04-19T10:34:12;98742.44;;;16.51;47.16
42289;BME280;30230;47.520;19.016;2023-04-19T10:36:13;98745.81;;;16.36;46.88
42289;BME280;30230;47.520;19.016;2023-04-19T10:38:14;98729.31;;;16.26;47.51
42289;BME280;30230;47.520;19.016;2023-04-19T10:43:13;98739.13;;;16.27;48.08